Time;durP1;ratioP1;P1;durP2;ratioP2;P2;SDS_P1;SDS_P2;PMS_P1;PMS_P2;Temp;Humidity;BMP_temperature;BMP_pressure;BME280_temperature;BME280_humidity;BME280_pressure;Samples;Min_cycle;Max_cycle;Signal;HPM_P1;HPM_P2
2022/01/28 00:00:05;;;;;;;;;;;4.10;99.90;;;;;;5007294;28;19933;-81
2022/01/28 00:02:53;;;;;;;;;;;4.10;99.90;;;;;;5000579;28;19933;-82
2022/01/28 00:05:21;;;;;;;;;;;4.20;99.90;;;;;;5020143;28;19929;-82
2022/01/28 00:07:48;;;;;;;;;;;4.20;99.90;;;;;;5019544;28;20015;-82
2022/01/28 00:10:14;;;;;;;;;;;4.20;99.90;;;;;;5035696;28;19925;-82
2022/01/28 00:12:57;;;;;;;;;;;4.20;99.90;;;;;;5019573;28;19933;-82
2022/01/28 00:39:49;;;;;;;;;;;4.40;99.90;;;;;;5096759;28;19970;-82
2022/01/28 00:42:15;;;;;;;;;;;5.00;99.90;;;;;;5097638;28;19924;-82
2022/01/28 00:44:41;;;;;;;;;;;4.40;99.90;;;;;;5095938;28;20359;-82
2022/01/28 00:47:06;;;;;;;;;;;4.40;99.90;;;;;;5097630;28;19931;-82
2022/01/28 00:49:32;;;;;;;;;;;4.40;99.90;;;;;;5095276;28;20007;-82
2022/01/28 00:51:58;;;;;;;;;;;4.40;99.90;;;;;;5094753;28;20030;-82
2022/01/28 00:54:23;;;;;;;;;;;4.60;99.90;;;;;;5095331;28;19924;-82
2022/01/28 00:56:49;;;;;;;;;;;5.00;99.90;;;;;;5095579;28;20011;-82
2022/01/28 00:59:15;;;;;;;;;;;4.60;99.90;;;;;;5095997;28;20023;-82
2022/01/28 01:01:41;;;;;;;;;;;4.70;99.90;;;;;;5076353;28;19976;-82
2022/01/28 01:04:06;;;;;;;;;;;4.60;99.90;;;;;;5074895;28;19935;-82
2022/01/28 01:06:32;;;;;;;;;;;4.60;99.90;;;;;;5075006;28;19932;-82
2022/01/28 01:08:58;;;;;;;;;;;4.60;99.90;;;;;;5074110;28;19925;-82
2022/01/28 01:11:24;;;;;;;;;;;4.60;99.90;;;;;;5074561;28;19931;-82
2022/01/28 01:13:51;;;;;;;;;;;4.50;99.90;;;;;;5074687;28;20015;-82
2022/01/28 01:16:22;;;;;;;;;;;4.50;99.90;;;;;;5076320;28;20015;-82
2022/01/28 01:19:02;;;;;;;;;;;4.40;99.90;;;;;;5074673;28;19932;-82
2022/01/28 01:21:30;;;;;;;;;;;4.40;99.90;;;;;;5075508;28;19925;-82
2022/01/28 01:23:57;;;;;;;;;;;4.40;99.90;;;;;;5075141;28;19935;-82
2022/01/28 01:26:35;;;;;;;;;;;4.40;99.90;;;;;;5076290;28;19924;-82
2022/01/28 01:29:02;;;;;;;;;;;4.30;99.90;;;;;;5075238;28;20379;-82
2022/01/28 01:31:27;;;;;;;;;;;4.30;99.90;;;;;;5074259;28;20453;-82
2022/01/28 01:34:04;;;;;;;;;;;4.30;99.90;;;;;;5075066;28;19972;-82
2022/01/28 01:36:30;;;;;;;;;;;4.20;99.90;;;;;;5057921;28;19924;-82
2022/01/28 01:38:55;;;;;;;;;;;4.20;99.90;;;;;;5075261;28;20379;-82
2022/01/28 01:41:35;;;;;;;;;;;4.20;99.90;;;;;;5074318;28;19924;-82
2022/01/28 01:44:06;;;;;;;;;;;4.20;99.90;;;;;;5057620;28;19924;-82
2022/01/28 01:52:04;;;;;;;;;;;4.30;99.90;;;;;;5057496;28;19931;-82
2022/01/28 01:54:30;;;;;;;;;;;4.20;99.90;;;;;;5057302;28;20367;-82
2022/01/28 01:56:56;;;;;;;;;;;4.50;99.90;;;;;;5074854;28;19928;-82
2022/01/28 01:59:22;;;;;;;;;;;4.10;99.90;;;;;;5076228;28;19924;-82
2022/01/28 02:01:47;;;;;;;;;;;4.00;99.90;;;;;;5096931;28;20019;-82
2022/01/28 02:04:13;;;;;;;;;;;3.90;99.90;;;;;;5096855;28;20355;-82
2022/01/28 02:06:40;;;;;;;;;;;3.90;99.90;;;;;;5096473;28;20378;-82
2022/01/28 02:09:06;;;;;;;;;;;3.90;99.90;;;;;;5117416;28;19950;-82
2022/01/28 02:11:32;;;;;;;;;;;3.90;99.90;;;;;;5100049;28;19980;-82
2022/01/28 02:13:57;;;;;;;;;;;3.90;99.90;;;;;;5100458;28;20395;-82
2022/01/28 02:16:23;;;;;;;;;;;3.90;99.90;;;;;;5100225;28;19928;-82
2022/01/28 02:18:49;;;;;;;;;;;3.90;99.90;;;;;;5118287;28;19930;-82
2022/01/28 02:21:16;;;;;;;;;;;3.90;99.90;;;;;;5102121;28;19924;-82
2022/01/28 02:23:46;;;;;;;;;;;4.00;99.90;;;;;;5106532;28;19993;-82
2022/01/28 02:26:15;;;;;;;;;;;4.10;99.90;;;;;;5124240;28;19970;-82
2022/01/28 02:28:43;;;;;;;;;;;4.10;99.90;;;;;;5105561;28;19931;-82
2022/01/28 02:31:09;;;;;;;;;;;4.20;99.90;;;;;;5105799;28;20400;-82
2022/01/28 02:33:34;;;;;;;;;;;4.20;99.90;;;;;;5126537;28;19925;-82
2022/01/28 02:36:05;;;;;;;;;;;4.30;99.90;;;;;;5104390;28;20282;-82
2022/01/28 02:38:31;;;;;;;;;;;4.30;99.90;;;;;;5104716;28;19985;-82
2022/01/28 02:40:59;;;;;;;;;;;4.70;99.90;;;;;;5087339;28;19920;-81
2022/01/28 02:46:32;;;;;;;;;;;4.50;99.90;;;;;;5039991;28;19928;-82
2022/01/28 02:49:05;;;;;;;;;;;4.50;99.90;;;;;;5022311;28;20024;-82
2022/01/28 02:51:31;;;;;;;;;;;4.50;99.90;;;;;;5022213;28;20012;-82
2022/01/28 02:53:57;;;;;;;;;;;4.50;99.90;;;;;;5025750;28;19967;-82
2022/01/28 02:56:34;;;;;;;;;;;4.60;99.90;;;;;;5005935;28;19972;-82
2022/01/28 02:59:00;;;;;;;;;;;4.50;99.90;;;;;;5022304;28;20343;-82
2022/01/28 03:01:26;;;;;;;;;;;4.50;99.90;;;;;;5006097;28;19992;-82
2022/01/28 03:03:54;;;;;;;;;;;4.40;99.90;;;;;;5002302;28;20021;-82
2022/01/28 03:06:20;;;;;;;;;;;4.80;99.90;;;;;;5018964;28;19923;-82
2022/01/28 03:09:02;;;;;;;;;;;4.30;99.90;;;;;;5019188;28;19935;-82
2022/01/28 03:14:32;;;;;;;;;;;4.30;99.90;;;;;;5019680;28;20404;-82
2022/01/28 03:19:27;;;;;;;;;;;4.30;99.90;;;;;;5083896;28;19932;-82
2022/01/28 03:21:57;;;;;;;;;;;4.40;99.90;;;;;;5100234;28;19977;-82
2022/01/28 03:24:23;;;;;;;;;;;4.40;99.90;;;;;;5101021;28;20022;-82
2022/01/28 03:26:54;;;;;;;;;;;4.40;99.90;;;;;;5101253;28;20436;-82
2022/01/28 03:29:20;;;;;;;;;;;4.40;99.90;;;;;;5082929;28;19924;-82
2022/01/28 03:31:45;;;;;;;;;;;4.40;99.90;;;;;;5085897;28;20007;-82
2022/01/28 03:34:11;;;;;;;;;;;4.50;99.90;;;;;;5079506;28;19924;-82
2022/01/28 03:36:37;;;;;;;;;;;4.50;99.90;;;;;;5079026;28;19931;-82
2022/01/28 03:39:03;;;;;;;;;;;4.50;99.90;;;;;;5062339;28;19924;-82
2022/01/28 03:41:29;;;;;;;;;;;4.60;99.90;;;;;;5062911;28;19928;-82
2022/01/28 03:43:58;;;;;;;;;;;4.50;99.90;;;;;;5079518;28;20037;-82
2022/01/28 03:46:24;;;;;;;;;;;4.50;99.90;;;;;;5079541;28;19984;-82
2022/01/28 03:48:50;;;;;;;;;;;4.50;99.90;;;;;;5079092;28;20432;-82
2022/01/28 03:51:15;;;;;;;;;;;4.60;99.90;;;;;;5079033;28;19932;-82
2022/01/28 03:53:41;;;;;;;;;;;4.60;99.90;;;;;;5078548;28;19973;-82
2022/01/28 03:56:06;;;;;;;;;;;4.70;99.90;;;;;;5062076;28;19924;-82
2022/01/28 03:58:32;;;;;;;;;;;4.80;99.90;;;;;;5078738;28;19924;-82
2022/01/28 04:00:58;;;;;;;;;;;4.80;99.90;;;;;;5091447;28;20022;-82
2022/01/28 04:11:33;;;;;;;;;;;4.70;99.90;;;;;;5098572;28;20362;-82
2022/01/28 04:14:18;;;;;;;;;;;4.90;99.90;;;;;;5098963;28;20321;-82
2022/01/28 04:19:27;;;;;;;;;;;4.60;99.90;;;;;;5117575;28;20014;-82
2022/01/28 04:21:53;;;;;;;;;;;4.60;99.90;;;;;;5098230;28;19982;-82
2022/01/28 04:24:18;;;;;;;;;;;4.40;99.90;;;;;;5098524;28;19923;-82
2022/01/28 04:26:44;;;;;;;;;;;4.70;99.90;;;;;;5098311;28;19963;-82
2022/01/28 04:29:11;;;;;;;;;;;4.30;99.90;;;;;;5080824;28;20294;-82
2022/01/28 04:31:41;;;;;;;;;;;4.30;99.90;;;;;;5097921;28;19942;-82
2022/01/28 04:34:07;;;;;;;;;;;4.30;99.90;;;;;;5097821;28;19923;-82
2022/01/28 04:36:37;;;;;;;;;;;4.40;99.90;;;;;;5116252;28;19924;-82
2022/01/28 04:45:05;;;;;;;;;;;4.30;99.90;;;;;;5036691;28;20027;-82
2022/01/28 04:50:18;;;;;;;;;;;4.20;99.90;;;;;;5056857;28;19909;-82
2022/01/28 04:53:10;;;;;;;;;;;4.20;99.90;;;;;;5035892;28;19968;-82
2022/01/28 05:01:23;;;;;;;;;;;4.20;99.90;;;;;;5036516;28;20334;-82
2022/01/28 05:11:59;;;;;;;;;;;4.20;99.90;;;;;;5053303;28;20383;-82
2022/01/28 05:27:21;;;;;;;;;;;4.30;99.90;;;;;;5073760;28;19924;-82
2022/01/28 05:29:47;;;;;;;;;;;4.20;99.90;;;;;;5056782;28;20019;-82
2022/01/28 05:32:12;;;;;;;;;;;4.20;99.90;;;;;;5056913;28;20416;-82
2022/01/28 05:34:38;;;;;;;;;;;4.10;99.90;;;;;;5073848;28;20347;-82
2022/01/28 05:37:05;;;;;;;;;;;4.20;99.90;;;;;;5058184;28;19930;-82
2022/01/28 05:39:30;;;;;;;;;;;4.80;99.90;;;;;;5075213;28;20020;-82
2022/01/28 05:41:56;;;;;;;;;;;4.10;99.90;;;;;;5073919;28;20354;-82
2022/01/28 05:44:22;;;;;;;;;;;4.10;99.90;;;;;;5056853;28;19924;-82
2022/01/28 05:46:48;;;;;;;;;;;4.10;99.90;;;;;;5075219;28;19947;-82
2022/01/28 05:49:14;;;;;;;;;;;4.00;99.90;;;;;;5073811;28;19925;-82
2022/01/28 05:51:40;;;;;;;;;;;3.90;99.90;;;;;;5074868;28;19928;-81
2022/01/28 05:54:06;;;;;;;;;;;3.80;99.90;;;;;;5073551;28;19928;-82
2022/01/28 05:56:32;;;;;;;;;;;3.70;99.90;;;;;;5073000;28;19950;-82
2022/01/28 05:58:58;;;;;;;;;;;3.70;99.90;;;;;;5056772;28;19980;-82
2022/01/28 06:01:23;;;;;;;;;;;3.60;99.90;;;;;;5093078;28;20370;-82
2022/01/28 06:03:49;;;;;;;;;;;3.60;99.90;;;;;;5096788;28;19924;-82
2022/01/28 06:06:20;;;;;;;;;;;4.20;99.90;;;;;;5096911;28;19931;-82
2022/01/28 06:08:46;;;;;;;;;;;3.50;99.90;;;;;;5096220;28;19924;-82
2022/01/28 06:11:12;;;;;;;;;;;3.40;99.90;;;;;;5097173;28;19924;-82
2022/01/28 06:13:37;;;;;;;;;;;3.30;99.90;;;;;;5096836;28;19924;-82
2022/01/28 06:16:03;;;;;;;;;;;3.30;99.90;;;;;;5096997;28;19930;-83
2022/01/28 06:18:28;;;;;;;;;;;3.30;99.90;;;;;;5096610;28;20015;-83
2022/01/28 06:20:54;;;;;;;;;;;3.70;99.90;;;;;;5096882;28;19924;-82
2022/01/28 06:23:19;;;;;;;;;;;3.20;99.90;;;;;;5080013;28;20297;-82
2022/01/28 06:25:45;;;;;;;;;;;3.10;99.90;;;;;;5115696;28;19931;-82
2022/01/28 06:28:10;;;;;;;;;;;3.10;99.90;;;;;;5097017;28;19930;-83
2022/01/28 06:30:36;;;;;;;;;;;3.10;99.90;;;;;;5096300;28;19924;-82
2022/01/28 06:33:01;;;;;;;;;;;3.00;99.90;;;;;;5096681;28;20018;-82
2022/01/28 06:35:27;;;;;;;;;;;3.00;99.90;;;;;;5079759;28;20395;-82
2022/01/28 06:37:52;;;;;;;;;;;2.90;99.90;;;;;;5096529;28;20455;-83
2022/01/28 06:40:18;;;;;;;;;;;2.90;99.90;;;;;;5096670;28;20010;-82
2022/01/28 06:42:44;;;;;;;;;;;2.90;99.90;;;;;;5103056;28;19985;-82
2022/01/28 06:45:09;;;;;;;;;;;3.00;99.90;;;;;;5122155;28;19923;-83
2022/01/28 06:47:35;;;;;;;;;;;2.90;99.90;;;;;;5104140;28;19928;-82
2022/01/28 06:50:02;;;;;;;;;;;2.90;99.90;;;;;;5104808;28;19924;-82
2022/01/28 06:52:28;;;;;;;;;;;2.90;99.90;;;;;;5103633;28;19923;-82
2022/01/28 06:54:53;;;;;;;;;;;3.00;99.90;;;;;;5116062;28;19927;-82
2022/01/28 06:57:19;;;;;;;;;;;3.00;99.90;;;;;;5097138;28;19924;-82
2022/01/28 06:59:45;;;;;;;;;;;3.00;99.90;;;;;;5094738;28;19985;-82
2022/01/28 07:02:10;;;;;;;;;;;3.00;99.90;;;;;;5099446;28;19985;-82
2022/01/28 07:04:36;;;;;;;;;;;3.00;99.90;;;;;;5078328;28;19967;-83
2022/01/28 07:07:01;;;;;;;;;;;2.90;99.90;;;;;;5077106;28;19924;-82
2022/01/28 07:09:27;;;;;;;;;;;2.90;99.90;;;;;;5062600;28;20259;-83
2022/01/28 07:11:53;;;;;;;;;;;2.80;99.90;;;;;;5080299;28;19978;-82
2022/01/28 07:14:18;;;;;;;;;;;2.80;99.90;;;;;;5063476;28;20337;-82
2022/01/28 07:16:44;;;;;;;;;;;2.70;99.90;;;;;;5080414;28;20340;-82
2022/01/28 07:19:10;;;;;;;;;;;2.60;99.90;;;;;;5079954;28;19924;-83
2022/01/28 07:21:35;;;;;;;;;;;2.50;99.90;;;;;;5063823;28;20326;-82
2022/01/28 07:24:01;;;;;;;;;;;2.50;99.90;;;;;;5079925;28;19967;-82
2022/01/28 07:26:27;;;;;;;;;;;2.40;99.90;;;;;;5080001;28;20302;-82
2022/01/28 07:28:53;;;;;;;;;;;2.30;99.90;;;;;;5079679;28;20020;-82
2022/01/28 07:31:19;;;;;;;;;;;2.20;99.90;;;;;;5079528;28;19925;-83
2022/01/28 07:33:45;;;;;;;;;;;2.10;99.90;;;;;;5079265;28;19920;-82
2022/01/28 07:36:10;;;;;;;;;;;2.10;99.90;;;;;;5097619;28;20267;-82
2022/01/28 07:38:36;;;;;;;;;;;2.00;99.90;;;;;;5079477;28;19931;-82
2022/01/28 07:41:02;;;;;;;;;;;2.00;99.90;;;;;;5079278;28;19924;-82
2022/01/28 07:43:28;;;;;;;;;;;2.00;99.90;;;;;;5097788;28;19924;-82
2022/01/28 07:45:54;;;;;;;;;;;1.90;99.90;;;;;;5079307;28;19972;-82
2022/01/28 07:48:19;;;;;;;;;;;1.90;99.90;;;;;;5079792;28;19924;-83
2022/01/28 07:50:45;;;;;;;;;;;1.90;99.90;;;;;;5062699;28;19924;-83
2022/01/28 07:53:15;;;;;;;;;;;1.80;99.90;;;;;;5078270;28;19985;-83
2022/01/28 07:55:41;;;;;;;;;;;2.30;99.90;;;;;;5080165;28;19974;-83
2022/01/28 07:58:06;;;;;;;;;;;1.80;99.90;;;;;;5096836;28;19975;-84
2022/01/28 08:00:32;;;;;;;;;;;1.80;99.90;;;;;;5087237;28;19923;-85
2022/01/28 08:02:57;;;;;;;;;;;1.80;99.90;;;;;;5098699;28;19924;-84
2022/01/28 08:05:23;;;;;;;;;;;1.80;99.90;;;;;;5098324;28;19923;-84
2022/01/28 08:07:48;;;;;;;;;;;1.80;99.90;;;;;;5098412;28;19931;-84
2022/01/28 08:10:17;;;;;;;;;;;2.60;99.90;;;;;;5080967;28;19924;-84
2022/01/28 08:12:52;;;;;;;;;;;1.90;99.90;;;;;;5098718;28;19987;-83
2022/01/28 08:15:18;;;;;;;;;;;1.90;99.90;;;;;;5081374;28;20327;-84
2022/01/28 08:17:44;;;;;;;;;;;2.00;99.90;;;;;;5098025;28;19924;-84
2022/01/28 08:20:11;;;;;;;;;;;2.10;99.90;;;;;;5097522;28;19924;-85
2022/01/28 08:22:43;;;;;;;;;;;2.10;99.90;;;;;;5098374;28;20263;-85
2022/01/28 08:25:09;;;;;;;;;;;2.20;99.90;;;;;;5098009;28;19923;-84
2022/01/28 08:27:34;;;;;;;;;;;2.30;99.90;;;;;;5081027;28;19923;-84
2022/01/28 08:30:00;;;;;;;;;;;2.40;99.90;;;;;;5081145;28;19924;-84
2022/01/28 08:32:27;;;;;;;;;;;2.40;99.90;;;;;;5081022;28;20402;-84
2022/01/28 08:34:53;;;;;;;;;;;2.50;99.90;;;;;;5097758;28;19924;-84
2022/01/28 08:37:19;;;;;;;;;;;3.40;99.90;;;;;;5097715;28;19924;-84
2022/01/28 08:39:45;;;;;;;;;;;2.70;99.90;;;;;;5097790;28;19931;-85
2022/01/28 08:42:10;;;;;;;;;;;3.30;99.90;;;;;;5081275;28;20020;-84
2022/01/28 08:44:36;;;;;;;;;;;2.90;99.90;;;;;;5097549;28;19927;-84
2022/01/28 08:47:01;;;;;;;;;;;3.00;99.90;;;;;;5080515;28;19982;-84
2022/01/28 08:49:27;;;;;;;;;;;3.10;99.90;;;;;;5080857;28;20278;-85
2022/01/28 08:51:52;;;;;;;;;;;3.50;99.90;;;;;;5097278;28;19930;-84
2022/01/28 08:54:18;;;;;;;;;;;3.30;99.90;;;;;;5097241;28;19930;-85
2022/01/28 08:56:45;;;;;;;;;;;4.10;99.90;;;;;;5080299;28;19958;-84
2022/01/28 08:59:10;;;;;;;;;;;3.90;99.90;;;;;;5080204;28;20384;-84
2022/01/28 09:01:36;;;;;;;;;;;4.20;99.90;;;;;;5079087;28;19928;-84
2022/01/28 09:04:02;;;;;;;;;;;3.50;99.90;;;;;;5077095;28;20284;-84
2022/01/28 09:06:27;;;;;;;;;;;3.60;99.90;;;;;;5059608;28;20340;-84
2022/01/28 09:08:55;;;;;;;;;;;4.30;99.90;;;;;;5059730;28;19931;-84
2022/01/28 09:13:46;;;;;;;;;;;3.60;99.90;;;;;;5076417;28;20343;-84
2022/01/28 09:16:12;;;;;;;;;;;3.70;99.90;;;;;;5076497;28;20331;-84
2022/01/28 09:18:37;;;;;;;;;;;3.80;99.90;;;;;;5076730;28;19924;-84
2022/01/28 09:21:03;;;;;;;;;;;3.90;99.90;;;;;;5059899;28;19924;-84
2022/01/28 09:23:28;;;;;;;;;;;4.60;99.90;;;;;;5059891;28;19974;-84
2022/01/28 09:25:54;;;;;;;;;;;4.50;99.90;;;;;;5076324;28;19925;-84
2022/01/28 09:28:19;;;;;;;;;;;4.40;99.90;;;;;;5059698;28;19924;-84
2022/01/28 09:30:45;;;;;;;;;;;4.10;99.90;;;;;;5075836;28;19924;-84
2022/01/28 09:33:11;;;;;;;;;;;4.10;99.90;;;;;;5060012;28;20382;-84
2022/01/28 09:35:37;;;;;;;;;;;4.10;99.90;;;;;;5076216;28;20459;-84
2022/01/28 09:38:02;;;;;;;;;;;4.10;99.90;;;;;;5076364;28;20282;-84
2022/01/28 09:40:28;;;;;;;;;;;4.10;99.90;;;;;;5059906;28;19976;-84
2022/01/28 09:42:54;;;;;;;;;;;4.70;99.90;;;;;;5076547;28;19959;-84
2022/01/28 09:45:22;;;;;;;;;;;4.00;99.90;;;;;;5076160;28;19930;-84
2022/01/28 09:47:51;;;;;;;;;;;3.90;99.90;;;;;;5076380;28;19920;-84
2022/01/28 09:50:17;;;;;;;;;;;3.90;99.90;;;;;;5060031;28;20501;-84
2022/01/28 09:52:42;;;;;;;;;;;3.90;99.90;;;;;;5059578;28;19974;-84
2022/01/28 09:55:08;;;;;;;;;;;4.40;99.90;;;;;;5076240;28;19956;-84
2022/01/28 09:57:34;;;;;;;;;;;3.80;99.90;;;;;;5075897;28;19924;-84
2022/01/28 09:59:59;;;;;;;;;;;3.80;99.90;;;;;;5063729;28;19931;-85
2022/01/28 10:02:43;;;;;;;;;;;4.40;99.90;;;;;;5096520;28;19923;-84
2022/01/28 10:05:29;;;;;;;;;;;3.90;99.90;;;;;;5079171;28;19924;-84
2022/01/28 10:08:02;;;;;;;;;;;4.00;99.90;;;;;;5096635;28;20286;-84
2022/01/28 10:10:43;;;;;;;;;;;4.10;99.90;;;;;;5096117;28;19923;-84
2022/01/28 10:13:19;;;;;;;;;;;4.20;99.90;;;;;;5079648;28;19924;-84
2022/01/28 10:15:52;;;;;;;;;;;4.30;99.90;;;;;;5080039;28;19931;-84
2022/01/28 10:18:18;;;;;;;;;;;4.30;99.90;;;;;;5096411;28;19984;-84
2022/01/28 10:20:43;;;;;;;;;;;4.40;99.90;;;;;;5079473;28;20370;-84
2022/01/28 10:23:11;;;;;;;;;;;4.40;99.90;;;;;;5096241;28;20304;-84
2022/01/28 10:25:38;;;;;;;;;;;5.10;99.90;;;;;;5096148;28;19931;-84
2022/01/28 10:28:04;;;;;;;;;;;4.60;99.90;;;;;;5095977;28;19924;-84
2022/01/28 10:30:30;;;;;;;;;;;4.60;99.90;;;;;;5079184;28;19924;-84
2022/01/28 10:33:11;;;;;;;;;;;4.70;99.90;;;;;;5114276;28;19927;-84
2022/01/28 10:35:36;;;;;;;;;;;4.80;99.90;;;;;;5079373;28;19930;-84
2022/01/28 10:38:02;;;;;;;;;;;4.90;99.90;;;;;;5078744;28;20019;-84
2022/01/28 10:40:28;;;;;;;;;;;5.50;99.90;;;;;;5095933;28;19982;-84
2022/01/28 10:42:53;;;;;;;;;;;5.10;99.90;;;;;;5081699;28;19927;-85
2022/01/28 10:45:20;;;;;;;;;;;5.20;99.90;;;;;;5100102;28;19953;-84
2022/01/28 10:47:50;;;;;;;;;;;5.30;99.90;;;;;;5100019;28;20022;-84
2022/01/28 10:50:15;;;;;;;;;;;5.30;99.90;;;;;;5083212;28;19924;-84
2022/01/28 10:52:41;;;;;;;;;;;5.50;99.90;;;;;;5099853;28;19931;-84
2022/01/28 10:55:06;;;;;;;;;;;6.00;99.90;;;;;;5082870;28;19920;-85
2022/01/28 10:57:32;;;;;;;;;;;5.70;99.90;;;;;;5099880;28;19924;-84
2022/01/28 10:59:58;;;;;;;;;;;5.70;99.90;;;;;;5101822;28;19946;-85
2022/01/28 11:02:25;;;;;;;;;;;6.40;99.90;;;;;;5079355;28;19928;-84
2022/01/28 11:04:52;;;;;;;;;;;5.90;99.90;;;;;;5063112;28;19931;-85
2022/01/28 11:07:18;;;;;;;;;;;6.10;99.90;;;;;;5079095;28;19924;-84
2022/01/28 11:09:44;;;;;;;;;;;6.20;99.90;;;;;;5062507;28;19950;-84
2022/01/28 11:12:10;;;;;;;;;;;6.30;99.90;;;;;;5079125;28;19930;-85
2022/01/28 11:14:35;;;;;;;;;;;6.40;99.90;;;;;;5062332;28;20089;-85
2022/01/28 11:17:01;;;;;;;;;;;7.10;99.90;;;;;;5078891;28;19924;-84
2022/01/28 11:19:28;;;;;;;;;;;6.50;99.90;;;;;;5087739;28;19978;-84
2022/01/28 11:22:08;;;;;;;;;;;6.80;99.90;;;;;;5079035;28;19924;-85
2022/01/28 11:24:53;;;;;;;;;;;6.60;99.90;;;;;;5062627;28;20047;-85
2022/01/28 11:27:18;;;;;;;;;;;6.60;99.90;;;;;;5062718;28;19939;-84
2022/01/28 11:29:44;;;;;;;;;;;6.70;99.90;;;;;;5079096;28;19924;-84
2022/01/28 11:32:09;;;;;;;;;;;6.70;99.90;;;;;;5062292;28;20014;-85
2022/01/28 11:34:36;;;;;;;;;;;6.70;99.90;;;;;;5078885;28;20015;-85
2022/01/28 11:37:01;;;;;;;;;;;7.10;99.90;;;;;;5078752;28;19923;-85
2022/01/28 11:39:32;;;;;;;;;;;7.50;99.90;;;;;;5062637;28;19931;-84
2022/01/28 11:42:00;;;;;;;;;;;6.60;99.90;;;;;;5062098;28;19942;-85
2022/01/28 11:44:51;;;;;;;;;;;6.60;99.90;;;;;;5061906;28;20451;-86
2022/01/28 11:47:21;;;;;;;;;;;6.60;99.90;;;;;;5062454;28;19924;-85
2022/01/28 11:49:53;;;;;;;;;;;6.60;99.90;;;;;;5078830;28;20005;-85
2022/01/28 11:52:22;;;;;;;;;;;6.60;99.90;;;;;;5078407;28;20370;-84
2022/01/28 11:54:47;;;;;;;;;;;6.60;99.90;;;;;;5061062;28;19928;-84
2022/01/28 11:57:14;;;;;;;;;;;6.60;99.90;;;;;;5078641;28;19924;-84
2022/01/28 11:59:39;;;;;;;;;;;6.70;99.90;;;;;;5062064;28;19931;-85
2022/01/28 12:02:05;;;;;;;;;;;7.30;99.90;;;;;;5082627;28;19924;-85
2022/01/28 12:04:32;;;;;;;;;;;6.80;99.90;;;;;;5082104;28;19924;-84
2022/01/28 12:07:03;;;;;;;;;;;6.80;99.90;;;;;;5080062;28;19947;-85
2022/01/28 12:09:30;;;;;;;;;;;6.90;99.90;;;;;;5075888;28;19972;-84
2022/01/28 12:11:58;;;;;;;;;;;6.90;99.90;;;;;;5041209;28;19928;-84
2022/01/28 12:14:42;;;;;;;;;;;7.10;99.90;;;;;;5074493;28;19927;-84
2022/01/28 12:17:27;;;;;;;;;;;7.20;99.90;;;;;;5074260;28;19924;-84
2022/01/28 12:20:11;;;;;;;;;;;7.20;99.90;;;;;;5074462;28;20356;-84
2022/01/28 12:22:55;;;;;;;;;;;7.30;99.90;;;;;;5057620;28;19974;-84
2022/01/28 12:25:36;;;;;;;;;;;7.40;99.90;;;;;;5074368;28;20379;-84
2022/01/28 12:28:16;;;;;;;;;;;7.40;99.90;;;;;;5074091;28;19932;-85
2022/01/28 12:30:42;;;;;;;;;;;7.50;99.90;;;;;;5074249;28;19924;-84
2022/01/28 12:33:09;;;;;;;;;;;7.70;99.90;;;;;;5074259;28;19924;-84
2022/01/28 12:35:36;;;;;;;;;;;7.90;99.90;;;;;;5057380;28;19928;-84
2022/01/28 12:38:03;;;;;;;;;;;7.90;99.90;;;;;;5073814;28;19931;-84
2022/01/28 12:40:35;;;;;;;;;;;8.30;99.90;;;;;;5074195;28;19925;-84
2022/01/28 12:43:01;;;;;;;;;;;8.20;99.90;;;;;;5073976;28;19924;-84
2022/01/28 12:45:26;;;;;;;;;;;8.50;99.90;;;;;;5073756;28;19968;-84
2022/01/28 12:47:53;;;;;;;;;;;9.20;99.90;;;;;;5040463;28;20423;-84
2022/01/28 12:50:19;;;;;;;;;;;9.30;99.90;;;;;;5057359;28;19970;-85
2022/01/28 12:52:45;;;;;;;;;;;9.90;99.90;;;;;;5073877;28;19964;-85
2022/01/28 12:55:12;;;;;;;;;;;10.60;99.90;;;;;;5073863;28;19994;-85
2022/01/28 12:57:41;;;;;;;;;;;10.20;99.90;;;;;;5056906;28;19928;-84
2022/01/28 13:00:07;;;;;;;;;;;10.30;99.90;;;;;;5078811;28;20382;-85
2022/01/28 13:02:34;;;;;;;;;;;10.60;99.90;;;;;;5093987;28;19985;-85
2022/01/28 13:09:54;;;;;;;;;;;11.30;99.90;;;;;;5093615;28;19947;-85
2022/01/28 13:12:21;;;;;;;;;;;10.70;99.90;;;;;;5093932;28;19924;-85
2022/01/28 13:14:46;;;;;;;;;;;10.70;99.90;;;;;;5093747;28;19928;-84
2022/01/28 13:17:17;;;;;;;;;;;11.00;99.90;;;;;;5076815;28;20260;-85
2022/01/28 13:19:42;;;;;;;;;;;10.50;99.90;;;;;;5093667;28;19931;-85
2022/01/28 13:22:08;;;;;;;;;;;10.50;99.90;;;;;;5093671;28;19924;-85
2022/01/28 13:24:34;;;;;;;;;;;10.50;99.90;;;;;;5093518;28;19931;-85
2022/01/28 13:27:07;;;;;;;;;;;10.70;99.90;;;;;;5076697;28;19935;-84
2022/01/28 13:29:47;;;;;;;;;;;10.60;99.90;;;;;;5093234;28;19924;-84
2022/01/28 13:32:23;;;;;;;;;;;10.70;99.90;;;;;;5093439;28;19925;-83
2022/01/28 13:34:54;;;;;;;;;;;11.00;99.90;;;;;;5093283;28;19924;-85
2022/01/28 13:37:38;;;;;;;;;;;11.20;99.90;;;;;;5093207;28;19924;-85
2022/01/28 13:40:05;;;;;;;;;;;10.80;99.90;;;;;;5093193;28;19947;-85
2022/01/28 13:42:31;;;;;;;;;;;10.40;99.90;;;;;;5076651;28;20285;-84
2022/01/28 13:45:03;;;;;;;;;;;10.40;99.90;;;;;;5093268;28;20033;-85
2022/01/28 13:47:46;;;;;;;;;;;10.90;99.90;;;;;;5076103;28;19931;-84
2022/01/28 13:50:21;;;;;;;;;;;10.80;99.90;;;;;;5093186;28;19924;-85
2022/01/28 13:52:51;;;;;;;;;;;10.30;99.90;;;;;;5093130;28;19927;-84
2022/01/28 13:55:33;;;;;;;;;;;10.00;99.90;;;;;;5092971;28;19924;-84
2022/01/28 13:58:00;;;;;;;;;;;9.50;99.90;;;;;;5093397;28;20076;-84
2022/01/28 14:00:34;;;;;;;;;;;9.20;99.90;;;;;;5089326;28;19931;-84
2022/01/28 14:02:59;;;;;;;;;;;9.50;99.90;;;;;;5095275;28;19943;-84
2022/01/28 14:05:25;;;;;;;;;;;9.00;99.90;;;;;;5095256;28;19924;-84
2022/01/28 14:07:54;;;;;;;;;;;9.10;99.90;;;;;;5094717;28;20023;-84
2022/01/28 14:10:19;;;;;;;;;;;9.20;99.90;;;;;;5062078;28;19924;-84
2022/01/28 14:12:49;;;;;;;;;;;9.60;99.90;;;;;;5083647;28;19974;-84
2022/01/28 14:15:27;;;;;;;;;;;9.80;99.90;;;;;;5056717;28;19972;-84
2022/01/28 14:17:53;;;;;;;;;;;10.10;99.90;;;;;;5072219;28;19924;-85
2022/01/28 14:20:19;;;;;;;;;;;10.10;99.90;;;;;;5055947;28;20386;-84
2022/01/28 14:22:45;;;;;;;;;;;9.90;99.90;;;;;;5055982;28;19932;-85
2022/01/28 14:25:11;;;;;;;;;;;9.70;99.90;;;;;;5072679;28;19925;-84
2022/01/28 14:30:05;;;;;;;;;;;9.30;99.90;;;;;;5072882;28;20275;-84
2022/01/28 14:32:31;;;;;;;;;;;9.10;99.90;;;;;;5072675;28;19924;-84
2022/01/28 14:34:56;;;;;;;;;;;9.30;99.90;;;;;;5072417;28;19951;-85
2022/01/28 14:37:24;;;;;;;;;;;9.20;99.90;;;;;;5072264;28;19925;-84
2022/01/28 14:39:50;;;;;;;;;;;8.40;99.90;;;;;;5055689;28;19928;-84
2022/01/28 14:42:15;;;;;;;;;;;8.60;99.90;;;;;;5072673;28;19925;-84
2022/01/28 14:44:43;;;;;;;;;;;8.60;99.90;;;;;;5055341;28;19924;-85
2022/01/28 14:47:09;;;;;;;;;;;7.80;99.90;;;;;;5072880;28;19931;-84
2022/01/28 14:49:35;;;;;;;;;;;8.10;99.90;;;;;;5055914;28;20282;-84
2022/01/28 14:52:05;;;;;;;;;;;7.60;99.90;;;;;;5055640;28;20018;-84
2022/01/28 14:54:31;;;;;;;;;;;7.70;99.90;;;;;;5072341;28;19972;-85
2022/01/28 14:56:57;;;;;;;;;;;7.90;99.90;;;;;;5072326;28;19983;-84
2022/01/28 14:59:23;;;;;;;;;;;7.20;99.90;;;;;;5072136;28;19928;-84
2022/01/28 15:01:49;;;;;;;;;;;7.50;99.90;;;;;;5091937;28;19924;-84
2022/01/28 15:04:15;;;;;;;;;;;7.00;99.90;;;;;;5092829;28;19924;-84
2022/01/28 15:06:41;;;;;;;;;;;6.90;99.90;;;;;;5075732;28;19931;-85
2022/01/28 15:09:09;;;;;;;;;;;6.90;99.90;;;;;;5092208;28;20294;-84
2022/01/28 15:14:12;;;;;;;;;;;6.80;99.90;;;;;;5092760;28;19924;-84
2022/01/28 15:16:38;;;;;;;;;;;6.70;99.90;;;;;;5092324;28;19924;-84
2022/01/28 15:19:04;;;;;;;;;;;6.60;99.90;;;;;;5092501;28;20293;-83
2022/01/28 15:21:30;;;;;;;;;;;7.30;99.90;;;;;;5075212;28;19928;-83
2022/01/28 15:23:55;;;;;;;;;;;6.50;99.90;;;;;;5092351;28;19928;-84
2022/01/28 15:26:21;;;;;;;;;;;6.50;99.90;;;;;;5058508;28;19927;-84
2022/01/28 15:29:09;;;;;;;;;;;6.50;99.90;;;;;;5075981;28;19931;-84
2022/01/28 15:37:12;;;;;;;;;;;6.30;99.90;;;;;;5063346;28;20286;-84
2022/01/28 15:39:38;;;;;;;;;;;6.50;99.90;;;;;;5096287;28;19924;-84
2022/01/28 15:42:08;;;;;;;;;;;6.20;99.90;;;;;;5095624;28;20447;-84
2022/01/28 15:44:34;;;;;;;;;;;6.20;99.90;;;;;;5095620;28;19924;-84
2022/01/28 15:47:00;;;;;;;;;;;6.10;99.90;;;;;;5095965;28;19931;-84
2022/01/28 15:49:25;;;;;;;;;;;6.10;99.90;;;;;;5095979;28;19924;-84
2022/01/28 15:51:51;;;;;;;;;;;6.10;99.90;;;;;;5095505;28;19931;-84
2022/01/28 15:54:17;;;;;;;;;;;6.00;99.90;;;;;;5078626;28;19961;-84
2022/01/28 15:56:42;;;;;;;;;;;6.00;99.90;;;;;;5095345;28;19935;-84
2022/01/28 15:59:08;;;;;;;;;;;6.10;99.90;;;;;;5095350;28;19982;-84
2022/01/28 16:01:33;;;;;;;;;;;5.90;99.90;;;;;;5061247;28;20264;-84
2022/01/28 16:03:59;;;;;;;;;;;5.90;99.90;;;;;;5041896;28;19950;-84
2022/01/28 16:06:25;;;;;;;;;;;5.90;99.90;;;;;;5074679;28;20041;-84
2022/01/28 16:08:54;;;;;;;;;;;5.80;99.90;;;;;;5074594;28;19930;-84
2022/01/28 16:11:28;;;;;;;;;;;5.80;99.90;;;;;;5057926;28;19924;-84
2022/01/28 16:13:59;;;;;;;;;;;5.80;99.90;;;;;;5074798;28;20436;-84